aviador You're here:

RKPK Decoded Metar

KIMHAE in KOREA
Report Time2018-04-24 14:00:00
UTC Time2018-04-24 14:18:05
Flight Rules vfr VFR
Wind030° at 20 kt
W.Decomp.*RWY 36: 16.0 kt HW 12.0 kt RCW
W.Rank030° ranks 1
Current wind is above 030° avg. (6.3)
Visibility9999 m
Phenomena:N/A
Clouds:Few 020 Hf
Broken 060 Hf
Expected CloudBase > 3,200 ft AGL from Temp-Dew spread
Ceiling6,000 ft
Temp12°C (ISA -3)
Dew Point04°C (58% RH)
AAT3.5°C
QNH1011 hPa
Density Alt-118 ft
Elevation49 ft
Report Wrong Elevation
Raw Report
RKPK 241400Z 03020KT 9999 FEW020 BKN060 12/04 Q1011 NOSIG=

Extra information for RKPK:More info

Metar Taf Metar & Taf Last 4 Metars F.Rules Stats Wind Profile Meteogram Temp Stats Airport Information Weather charts Add Link Nearby VenuesMetar ALERT Operation Metar Decoded Social comments